Time;durP1;ratioP1;P1;durP2;ratioP2;P2;SDS_P1;SDS_P2;PMS_P1;PMS_P2;Temp;Humidity;BMP_temperature;BMP_pressure;BME280_temperature;BME280_humidity;BME280_pressure;Samples;Min_cycle;Max_cycle;Signal;HPM_P1;HPM_P2
2021/03/27 00:04:16;;;;;;;8.00;2.45;;;21.30;44.10;;;;;;20588474;28;20039;-27
2021/03/27 00:14:23;;;;;;;6.85;1.90;;;21.20;44.00;;;;;;20620820;23;20081;-19
2021/03/27 00:24:26;;;;;;;4.15;1.88;;;21.20;44.10;;;;;;20589560;28;20066;-20
2021/03/27 00:34:32;;;;;;;5.03;1.92;;;21.20;44.10;;;;;;20589714;28;20415;-21
2021/03/27 00:44:36;;;;;;;2.75;1.70;;;21.00;44.50;;;;;;20561466;28;20035;-19
2021/03/27 00:54:58;;;;;;;5.70;2.03;;;21.00;45.70;;;;;;20494719;28;20448;-19
2021/03/27 01:05:02;;;;;;;5.25;2.10;;;20.80;46.20;;;;;;20574422;28;20035;-21
2021/03/27 01:15:21;;;;;;;3.55;1.70;;;20.70;46.80;;;;;;20574527;28;20376;-18
2021/03/27 01:25:30;;;;;;;6.07;1.87;;;20.70;46.80;;;;;;20588034;28;20045;-20
2021/03/27 01:35:56;;;;;;;6.45;1.90;;;20.60;47.30;;;;;;20598162;28;20082;-22
2021/03/27 01:45:59;;;;;;;5.13;1.95;;;20.60;47.40;;;;;;20611960;28;20039;-21
2021/03/27 01:56:24;;;;;;;8.27;2.42;;;20.50;47.60;;;;;;20630552;28;20404;-22
2021/03/27 02:06:46;;;;;;;4.28;2.13;;;20.60;47.70;;;;;;20622841;28;20027;-21
2021/03/27 02:17:00;;;;;;;4.35;1.88;;;20.40;47.80;;;;;;20612691;28;20039;-19
2021/03/27 02:27:23;;;;;;;4.20;1.98;;;20.30;47.80;;;;;;20620543;28;20122;-20
2021/03/27 02:37:31;;;;;;;4.20;3.08;;;20.30;47.90;;;;;;20555381;28;20041;-22
2021/03/27 02:47:52;;;;;;;3.47;1.88;;;20.30;48.10;;;;;;20586389;28;20403;-21
2021/03/27 02:58:06;;;;;;;3.80;2.20;;;20.20;48.20;;;;;;20602111;28;20057;-21
2021/03/27 03:08:31;;;;;;;4.38;1.88;;;20.20;47.80;;;;;;20517039;28;20050;-20
2021/03/27 03:18:52;;;;;;;3.42;1.63;;;20.30;47.80;;;;;;20515883;28;20042;-22
2021/03/27 03:29:12;;;;;;;2.33;1.27;;;20.30;48.10;;;;;;20515067;28;20722;-21
2021/03/27 03:39:40;;;;;;;4.05;1.90;;;20.30;48.20;;;;;;20597395;28;20061;-21
2021/03/27 03:49:46;;;;;;;4.32;2.45;;;20.30;48.60;;;;;;20600867;28;20391;-22
2021/03/27 03:59:55;;;;;;;3.63;1.40;;;20.20;48.70;;;;;;20606081;28;20033;-22
2021/03/27 04:09:59;;;;;;;2.70;1.20;;;20.20;48.40;;;;;;20605498;28;20403;-21
2021/03/27 04:20:09;;;;;;;1.48;0.90;;;20.10;48.10;;;;;;20596639;28;20030;-21
2021/03/27 04:30:28;;;;;;;4.85;1.92;;;20.10;48.00;;;;;;20585497;28;20450;-22
2021/03/27 04:40:34;;;;;;;;;;;20.10;48.10;;;;;;20578032;28;20706;-21
2021/03/27 04:50:41;;;;;;;7.57;1.13;;;20.00;47.70;;;;;;20584321;28;19913;-19
2021/03/27 05:00:54;;;;;;;2.78;1.00;;;20.00;47.60;;;;;;20576864;28;20027;-20
2021/03/27 05:11:10;;;;;;;1.83;0.70;;;20.10;47.70;;;;;;20579228;28;20039;-21
2021/03/27 05:21:35;;;;;;;2.97;1.52;;;19.90;47.60;;;;;;20601761;28;20098;-22
2021/03/27 05:31:40;;;;;;;0.98;0.52;;;19.90;47.60;;;;;;20592543;28;20045;-22
2021/03/27 05:41:58;;;;;;;2.53;1.00;;;19.90;47.50;;;;;;20604484;28;20427;-20
2021/03/27 05:52:07;;;;;;;1.40;0.60;;;19.90;47.40;;;;;;20590136;28;20151;-21
2021/03/27 06:02:45;;;;;;;1.48;0.60;;;19.80;47.30;;;;;;20589521;28;20031;-22
2021/03/27 06:13:00;;;;;;;1.00;0.40;;;19.80;47.30;;;;;;20619429;23;20055;-25
2021/03/27 06:23:25;;;;;;;2.42;0.80;;;19.70;47.30;;;;;;20614607;28;20065;-19
2021/03/27 06:33:44;;;;;;;1.55;0.63;;;19.80;47.40;;;;;;20616585;28;20030;-25
2021/03/27 06:44:12;;;;;;;0.73;0.43;;;19.70;47.30;;;;;;20609322;28;20034;-25
2021/03/27 06:54:44;;;;;;;1.73;0.47;;;19.90;47.30;;;;;;20606811;28;20133;-21
2021/03/27 07:05:23;;;;;;;1.15;0.30;;;19.50;47.10;;;;;;20594982;28;20122;-22
2021/03/27 07:15:45;;;;;;;3.53;0.40;;;19.70;46.90;;;;;;20591521;28;20043;-22
2021/03/27 07:25:58;;;;;;;1.05;0.40;;;20.00;46.30;;;;;;20601683;28;20023;-23
2021/03/27 07:36:29;;;;;;;2.92;0.93;;;20.60;44.80;;;;;;20615945;28;20058;-22
2021/03/27 07:47:06;;;;;;;1.27;0.50;;;21.40;42.80;;;;;;20617203;28;20055;-22
2021/03/27 07:57:31;;;;;;;2.42;0.43;;;22.20;40.90;;;;;;20609126;28;20037;-20
2021/03/27 08:08:00;;;;;;;2.22;0.35;;;22.90;39.50;;;;;;20597210;28;20039;-21
2021/03/27 08:18:26;;;;;;;3.97;0.60;;;23.20;39.00;;;;;;20605608;28;20124;-22
2021/03/27 08:28:55;;;;;;;4.72;1.23;;;23.60;38.60;;;;;;20564543;28;20031;-22
2021/03/27 08:38:55;;;;;;;;;;;23.50;38.90;;;;;;20597049;28;20506;-22
2021/03/27 08:49:01;;;;;;;2.80;0.60;;;23.30;39.20;;;;;;20526980;28;19942;-22
2021/03/27 08:59:39;;;;;;;4.20;0.45;;;23.20;39.60;;;;;;20575638;28;20038;-23
2021/03/27 09:09:58;;;;;;;1.58;0.43;;;23.00;39.90;;;;;;20593707;28;20034;-22
2021/03/27 09:20:28;;;;;;;6.05;0.65;;;22.90;40.20;;;;;;20528785;28;20127;-25
2021/03/27 09:30:43;;;;;;;4.25;0.70;;;22.80;40.80;;;;;;20577201;28;20438;-23
2021/03/27 09:41:17;;;;;;;6.43;1.45;;;22.80;41.10;;;;;;20596365;28;20562;-19
2021/03/27 09:51:37;;;;;;;13.50;3.00;;;22.50;41.50;;;;;;20580065;28;20023;-23
2021/03/27 10:01:45;;;;;;;13.65;3.45;;;22.20;41.30;;;;;;20574117;28;20483;-20
2021/03/27 10:11:55;;;;;;;12.38;3.03;;;22.10;41.90;;;;;;20601584;28;20122;-21
2021/03/27 10:21:59;;;;;;;14.13;2.28;;;22.10;42.40;;;;;;20604458;28;20090;-21
2021/03/27 10:32:22;;;;;;;11.20;2.15;;;22.00;43.10;;;;;;20587012;28;20558;-20
2021/03/27 10:43:00;;;;;;;10.02;2.50;;;22.10;43.40;;;;;;20587267;28;20102;-22
2021/03/27 10:53:20;;;;;;;32.22;5.65;;;22.10;43.30;;;;;;20583527;28;20034;-19
2021/03/27 11:03:26;;;;;;;15.00;4.07;;;22.20;43.50;;;;;;20582916;28;20034;-24
2021/03/27 11:13:47;;;;;;;15.85;3.67;;;22.10;43.60;;;;;;20582383;28;20407;-23
2021/03/27 11:24:01;;;;;;;26.60;3.55;;;22.10;43.80;;;;;;20579889;28;20030;-22
2021/03/27 11:34:09;;;;;;;11.13;2.22;;;22.00;44.40;;;;;;20579819;28;20105;-21
2021/03/27 11:44:46;;;;;;;26.50;2.67;;;22.10;44.50;;;;;;20564035;28;20497;-24
2021/03/27 11:55:03;;;;;;;16.48;2.78;;;22.10;44.40;;;;;;20553922;28;20448;-23
2021/03/27 12:05:19;;;;;;;13.20;1.70;;;22.10;44.30;;;;;;20598373;28;20495;-22
2021/03/27 12:15:45;;;;;;;20.02;4.18;;;22.00;44.20;;;;;;20618499;23;20043;-22
2021/03/27 12:25:55;;;;;;;15.38;2.30;;;22.10;44.00;;;;;;20578496;28;20031;-22
2021/03/27 12:36:23;;;;;;;15.48;2.30;;;22.00;44.10;;;;;;20589716;28;20483;-19
2021/03/27 12:46:42;;;;;;;10.03;1.53;;;22.00;44.60;;;;;;20566606;28;20038;-19
2021/03/27 12:57:00;;;;;;;8.05;1.92;;;21.90;44.30;;;;;;20573113;28;20042;-20
2021/03/27 13:07:34;;;;;;;16.08;2.85;;;22.00;44.10;;;;;;20552464;28;20511;-19
2021/03/27 13:18:12;;;;;;;11.93;1.95;;;21.90;43.50;;;;;;20579318;28;20105;-22
2021/03/27 13:28:37;;;;;;;13.83;1.73;;;21.90;42.50;;;;;;20579833;28;20123;-21
2021/03/27 13:38:48;;;;;;;9.13;1.45;;;21.80;42.80;;;;;;20603945;28;20511;-20
2021/03/27 13:49:14;;;;;;;8.80;1.80;;;21.90;42.70;;;;;;20621346;28;20035;-21
2021/03/27 13:59:36;;;;;;;11.27;1.48;;;21.90;42.70;;;;;;20598616;28;20039;-21
2021/03/27 14:10:02;;;;;;;4.10;1.17;;;22.10;43.40;;;;;;20591754;28;20023;-21
2021/03/27 14:20:27;;;;;;;10.68;1.48;;;22.10;44.40;;;;;;20582744;28;20037;-19
2021/03/27 14:31:01;;;;;;;12.40;1.73;;;22.20;44.90;;;;;;20567694;28;20022;-22
2021/03/27 14:41:09;;;;;;;9.30;2.10;;;22.20;45.70;;;;;;20599526;28;20037;-21
2021/03/27 14:51:22;;;;;;;9.52;2.17;;;22.40;45.50;;;;;;20570390;28;20098;-20
2021/03/27 15:01:31;;;;;;;12.43;1.67;;;22.30;45.50;;;;;;20591926;28;20110;-21
2021/03/27 15:11:41;;;;;;;;;;;22.20;45.80;;;;;;20584812;28;20042;-20
2021/03/27 15:22:12;;;;;;;10.43;1.33;;;22.10;45.80;;;;;;20584781;28;19910;-18
2021/03/27 15:32:21;;;;;;;4.70;1.35;;;22.10;46.20;;;;;;20569151;28;20023;-22
2021/03/27 15:42:37;;;;;;;3.60;0.90;;;22.10;46.00;;;;;;20579871;28;20507;-20
2021/03/27 15:52:46;;;;;;;14.48;1.77;;;22.10;46.10;;;;;;20580912;28;20019;-21
2021/03/27 16:03:05;;;;;;;5.22;1.58;;;22.10;46.00;;;;;;20586021;28;20105;-20
2021/03/27 16:13:33;;;;;;;8.52;0.95;;;22.20;46.30;;;;;;20579150;28;20499;-21
2021/03/27 16:23:42;;;;;;;5.18;0.95;;;21.90;46.40;;;;;;20577914;28;20022;-19
2021/03/27 16:33:50;;;;;;;5.75;1.05;;;21.80;46.60;;;;;;20575787;28;20050;-20
2021/03/27 16:44:06;;;;;;;2.88;0.60;;;21.80;46.40;;;;;;20531256;28;20034;-19
2021/03/27 16:54:34;;;;;;;3.58;2.05;;;21.90;46.50;;;;;;20575214;28;20038;-22
2021/03/27 17:04:50;;;;;;;2.22;0.65;;;21.70;46.40;;;;;;20571919;28;20507;-22
2021/03/27 17:15:14;;;;;;;3.45;0.80;;;21.70;46.60;;;;;;20598323;28;20042;-20
2021/03/27 17:25:31;;;;;;;2.70;0.65;;;21.70;46.40;;;;;;20590874;28;20540;-19
2021/03/27 17:35:38;;;;;;;2.72;0.57;;;21.60;46.50;;;;;;20591501;28;20038;-20
2021/03/27 17:46:14;;;;;;;3.70;0.80;;;21.60;46.60;;;;;;20597142;28;20034;-22
2021/03/27 17:56:44;;;;;;;5.00;0.90;;;21.80;46.50;;;;;;20581076;28;20050;-21
2021/03/27 18:07:08;;;;;;;40.25;14.00;;;21.70;46.30;;;;;;20616490;28;20514;-21
2021/03/27 18:17:23;;;;;;;83.53;30.52;;;21.70;46.30;;;;;;20570410;28;20117;-20
2021/03/27 18:27:40;;;;;;;86.32;33.08;;;21.70;47.60;;;;;;20587785;28;20518;-20
2021/03/27 18:37:42;;;;;;;86.10;32.83;;;21.90;47.70;;;;;;20610738;28;20029;-20
2021/03/27 18:47:53;;;;;;;83.35;29.92;;;21.90;47.10;;;;;;20583723;28;20030;-22
2021/03/27 18:58:00;;;;;;;72.18;28.20;;;21.80;47.50;;;;;;20582615;28;20033;-20
2021/03/27 19:08:32;;;;;;;78.50;28.17;;;21.90;47.00;;;;;;20583498;28;20053;-22
2021/03/27 19:18:41;;;;;;;74.78;23.50;;;21.90;47.60;;;;;;20575620;28;20048;-20
2021/03/27 19:29:05;;;;;;;60.90;22.17;;;22.20;47.30;;;;;;20578145;28;20637;-20
2021/03/27 19:39:18;;;;;;;54.70;20.88;;;22.80;46.50;;;;;;20514147;28;20463;-20
2021/03/27 19:49:26;;;;;;;46.08;20.27;;;23.30;45.00;;;;;;20546747;28;20039;-22
2021/03/27 19:59:33;;;;;;;59.22;17.80;;;23.60;44.30;;;;;;20570576;28;20118;-18
2021/03/27 20:09:47;;;;;;;43.90;16.63;;;23.60;44.60;;;;;;20571547;28;20030;-19
2021/03/27 20:20:21;;;;;;;37.67;14.90;;;23.40;44.60;;;;;;20578966;28;20062;-21
2021/03/27 20:30:34;;;;;;;33.70;13.55;;;23.20;45.50;;;;;;20552347;28;20517;-19
2021/03/27 20:40:47;;;;;;;34.25;13.73;;;23.10;45.50;;;;;;20577694;28;20399;-22
2021/03/27 20:50:53;;;;;;;28.15;12.13;;;23.00;45.80;;;;;;20576965;28;20038;-20
2021/03/27 21:01:00;;;;;;;24.15;10.73;;;23.00;45.60;;;;;;20571924;28;20038;-21
2021/03/27 21:11:26;;;;;;;24.67;10.40;;;22.90;45.80;;;;;;20596347;28;20050;-20
2021/03/27 21:21:45;;;;;;;34.05;10.30;;;22.90;45.20;;;;;;20566103;28;20133;-20
2021/03/27 21:31:47;;;;;;;19.48;9.52;;;22.90;45.10;;;;;;20576525;28;20070;-20
2021/03/27 21:41:50;;;;;;;18.45;8.35;;;22.80;44.80;;;;;;20588931;28;20455;-19
2021/03/27 21:52:26;;;;;;;26.17;8.82;;;22.70;44.50;;;;;;20600664;28;20030;-20
2021/03/27 22:02:31;;;;;;;14.50;7.53;;;22.70;44.50;;;;;;20350387;29;20044;-20
2021/03/27 22:13:08;;;;;;;21.95;7.13;;;22.90;44.10;;;;;;20344234;29;20044;-19
2021/03/27 22:23:50;;;;;;;15.20;5.68;;;22.70;44.50;;;;;;20343314;29;20036;-19
2021/03/27 22:34:10;;;;;;;13.98;6.38;;;22.50;44.90;;;;;;20461188;28;20500;-21
2021/03/27 22:44:42;;;;;;;12.40;6.10;;;22.30;45.00;;;;;;20599498;28;20027;-20
2021/03/27 22:54:45;;;;;;;13.73;6.32;;;22.20;44.80;;;;;;20570700;28;20023;-21
2021/03/27 23:05:05;;;;;;;11.55;5.50;;;22.00;44.90;;;;;;20575831;28;20041;-18
2021/03/27 23:15:50;;;;;;;12.52;5.32;;;21.90;45.70;;;;;;20580569;28;20030;-21
2021/03/27 23:26:11;;;;;;;15.13;5.72;;;21.70;46.20;;;;;;20552182;28;20039;-21
2021/03/27 23:36:37;;;;;;;11.60;5.68;;;21.60;46.20;;;;;;20616403;28;20113;-19
2021/03/27 23:46:53;;;;;;;11.45;5.10;;;21.40;46.00;;;;;;20607315;28;20057;-20
2021/03/27 23:57:15;;;;;;;9.88;4.07;;;21.20;46.10;;;;;;20602070;28;20046;-20
